createdAt,value
2023-02-09T00:01:31.876Z,2.50
2023-02-09T00:04:03.007Z,2.70
2023-02-09T00:06:31.509Z,2.80
2023-02-09T00:08:59.615Z,2.90
2023-02-09T00:11:51.411Z,2.70
2023-02-09T00:14:22.075Z,2.70
2023-02-09T00:16:51.926Z,2.90
2023-02-09T00:19:20.687Z,2.80
2023-02-09T00:21:48.746Z,2.70
2023-02-09T00:24:16.801Z,2.70
2023-02-09T00:26:44.675Z,2.80
2023-02-09T00:29:13.848Z,2.90
2023-02-09T00:31:42.592Z,2.90
2023-02-09T00:34:11.424Z,2.90
2023-02-09T00:36:39.444Z,3.10
2023-02-09T00:39:06.962Z,3.00
2023-02-09T00:41:55.074Z,3.10
2023-02-09T00:44:22.478Z,3.10
2023-02-09T00:46:49.909Z,3.10
2023-02-09T00:49:18.344Z,3.10
2023-02-09T00:51:46.697Z,3.10
2023-02-09T00:54:16.668Z,3.30
2023-02-09T00:56:45.972Z,3.40
2023-02-09T00:59:15.219Z,3.50
2023-02-09T01:01:42.644Z,3.50
2023-02-09T01:04:11.068Z,3.50
2023-02-09T01:06:38.740Z,3.60
2023-02-09T01:09:06.872Z,3.60
2023-02-09T01:11:34.154Z,3.70
2023-02-09T01:14:04.588Z,3.70
2023-02-09T01:16:32.563Z,3.60
2023-02-09T01:19:01.927Z,3.50
2023-02-09T01:21:30.410Z,3.50
2023-02-09T01:23:59.692Z,3.50
2023-02-09T01:26:27.073Z,3.50
2023-02-09T01:28:56.084Z,3.60
2023-02-09T01:31:33.325Z,3.50
2023-02-09T01:34:03.488Z,3.50
2023-02-09T01:36:33.852Z,3.60
2023-02-09T01:39:04.067Z,3.80
2023-02-09T01:41:34.143Z,3.70
2023-02-09T01:44:03.078Z,3.90
2023-02-09T01:46:33.503Z,3.80
2023-02-09T01:49:02.231Z,3.80
2023-02-09T01:51:31.174Z,3.70
2023-02-09T01:53:59.102Z,3.80
2023-02-09T01:56:31.018Z,3.60
2023-02-09T01:58:59.472Z,3.70
2023-02-09T02:01:29.252Z,3.70
2023-02-09T02:03:57.356Z,3.90
2023-02-09T02:06:25.662Z,3.90
2023-02-09T02:08:58.991Z,3.70
2023-02-09T02:11:30.099Z,3.70
2023-02-09T02:13:58.279Z,3.70
2023-02-09T02:16:38.128Z,3.70
2023-02-09T02:19:09.149Z,3.70
2023-02-09T02:21:43.195Z,3.80
2023-02-09T02:24:38.599Z,3.90
2023-02-09T02:27:10.787Z,3.70
2023-02-09T02:29:50.225Z,3.70
2023-02-09T02:32:48.615Z,3.50
2023-02-09T02:35:39.890Z,3.40
2023-02-09T02:38:31.695Z,3.30
2023-02-09T02:41:15.293Z,3.30
2023-02-09T02:44:03.498Z,3.10
2023-02-09T02:46:45.500Z,3.10
2023-02-09T02:49:29.839Z,3.10
2023-02-09T02:52:03.601Z,3.10
2023-02-09T02:54:46.016Z,3.00
2023-02-09T02:57:25.177Z,3.00
2023-02-09T03:00:06.718Z,2.80
2023-02-09T03:02:53.684Z,3.00
2023-02-09T03:05:23.950Z,3.00
2023-02-09T03:07:51.979Z,2.70
2023-02-09T03:10:37.549Z,2.40
2023-02-09T03:13:08.198Z,2.50
2023-02-09T03:15:59.007Z,2.50
2023-02-09T03:18:31.714Z,2.50
2023-02-09T03:21:17.319Z,2.30
2023-02-09T03:24:05.332Z,2.30
2023-02-09T03:26:47.209Z,2.40
2023-02-09T03:29:17.631Z,2.50
2023-02-09T03:31:46.793Z,2.30
2023-02-09T03:34:14.412Z,2.40
2023-02-09T03:36:42.273Z,2.50
2023-02-09T03:39:10.991Z,2.50
2023-02-09T03:41:38.666Z,2.50
2023-02-09T03:44:24.464Z,2.50
2023-02-09T03:46:51.795Z,2.60
2023-02-09T03:49:19.551Z,2.60
2023-02-09T03:51:46.976Z,2.50
2023-02-09T03:54:15.571Z,2.50
2023-02-09T03:56:43.022Z,2.50
2023-02-09T03:59:11.116Z,2.50
2023-02-09T04:01:39.024Z,2.30
2023-02-09T04:04:07.049Z,2.00
2023-02-09T04:06:37.506Z,1.80
2023-02-09T04:09:09.331Z,1.70
2023-02-09T04:11:36.723Z,1.50
2023-02-09T04:14:05.440Z,1.50
2023-02-09T04:16:33.108Z,1.40
2023-02-09T04:19:00.540Z,1.30
2023-02-09T04:21:28.479Z,1.50
2023-02-09T04:23:55.675Z,1.70
2023-02-09T04:26:24.117Z,1.50
2023-02-09T04:32:59.088Z,1.20
2023-02-09T04:35:26.710Z,0.80
2023-02-09T04:37:55.337Z,0.50
2023-02-09T04:40:23.072Z,0.50
2023-02-09T04:42:51.629Z,0.80
2023-02-09T04:45:19.421Z,0.60
2023-02-09T04:47:47.714Z,0.40
2023-02-09T04:50:15.359Z,0.30
2023-02-09T04:52:42.716Z,0.40
2023-02-09T04:55:10.556Z,0.30
2023-02-09T04:57:56.597Z,0.30
2023-02-09T05:00:24.712Z,0.00
2023-02-09T05:02:52.096Z,0.30
2023-02-09T05:05:20.982Z,0.50
2023-02-09T05:07:48.441Z,0.50
2023-02-09T05:10:16.685Z,0.60
2023-02-09T05:12:47.691Z,0.20
2023-02-09T05:15:16.974Z,0.00
2023-02-09T05:17:44.263Z,0.00
2023-02-09T05:20:12.946Z,0.20
2023-02-09T05:22:40.299Z,-0.10
2023-02-09T05:25:08.800Z,-0.10
2023-02-09T05:27:36.165Z,0.10
2023-02-09T05:30:06.148Z,0.40
2023-02-09T05:32:33.501Z,0.80
2023-02-09T05:35:00.785Z,1.00
2023-02-09T05:37:28.860Z,1.20
2023-02-09T05:39:56.338Z,1.20
2023-02-09T05:42:23.980Z,1.30
2023-02-09T05:44:52.267Z,1.40
2023-02-09T05:47:29.311Z,1.40
2023-02-09T05:49:56.837Z,1.40
2023-02-09T05:52:25.397Z,1.40
2023-02-09T05:54:53.302Z,1.50
2023-02-09T05:57:21.258Z,1.40
2023-02-09T05:59:48.861Z,1.50
2023-02-09T06:02:17.409Z,1.10
2023-02-09T06:04:45.370Z,0.60
2023-02-09T06:07:12.829Z,0.60
2023-02-09T06:09:40.217Z,0.90
2023-02-09T06:12:11.357Z,1.10
2023-02-09T06:14:39.279Z,1.40
2023-02-09T06:17:07.590Z,1.50
2023-02-09T06:19:37.312Z,1.40
2023-02-09T06:22:04.797Z,1.60
2023-02-09T06:24:32.612Z,1.80
2023-02-09T06:27:00.146Z,1.70
2023-02-09T06:29:28.786Z,1.50
2023-02-09T06:31:56.568Z,1.50
2023-02-09T06:34:25.936Z,1.50
2023-02-09T06:36:54.226Z,1.50
2023-02-09T06:39:21.591Z,1.50
2023-02-09T06:41:49.744Z,1.40
2023-02-09T06:44:17.177Z,1.50
2023-02-09T06:46:45.491Z,1.50
2023-02-09T06:49:13.404Z,1.30
2023-02-09T06:51:42.091Z,1.20
2023-02-09T06:54:10.034Z,1.00
2023-02-09T06:56:37.805Z,1.00
2023-02-09T06:59:05.077Z,0.90
2023-02-09T07:01:33.101Z,0.80
2023-02-09T07:04:00.491Z,1.00
2023-02-09T07:06:28.780Z,1.00
2023-02-09T07:08:56.252Z,0.90
2023-02-09T07:11:31.630Z,1.00
2023-02-09T07:13:59.808Z,0.90
2023-02-09T07:16:29.344Z,1.20
2023-02-09T07:18:58.859Z,1.50
2023-02-09T07:21:37.358Z,1.70
2023-02-09T07:24:10.446Z,1.80
2023-02-09T07:26:38.145Z,2.00
2023-02-09T07:29:05.418Z,2.20
2023-02-09T07:31:33.399Z,2.40
2023-02-09T07:34:01.556Z,2.50
2023-02-09T07:36:29.142Z,2.50
2023-02-09T07:38:56.885Z,2.70
2023-02-09T07:41:25.419Z,2.80
2023-02-09T07:43:53.821Z,2.90
2023-02-09T07:46:23.033Z,3.10
2023-02-09T07:48:51.520Z,3.20
2023-02-09T07:51:25.347Z,3.00
2023-02-09T07:53:53.679Z,3.10
2023-02-09T07:56:22.106Z,3.20
2023-02-09T07:58:50.432Z,3.30
2023-02-09T08:01:19.262Z,3.50
2023-02-09T08:03:49.305Z,3.50
2023-02-09T08:06:40.773Z,3.60
2023-02-09T08:09:15.022Z,3.70
2023-02-09T08:11:58.654Z,3.90
2023-02-09T08:14:31.131Z,3.70
2023-02-09T08:17:30.119Z,3.50
2023-02-09T08:20:06.302Z,3.50
2023-02-09T08:22:39.340Z,3.50
2023-02-09T08:25:09.910Z,3.30
2023-02-09T08:27:41.152Z,3.30
2023-02-09T08:30:10.288Z,3.40
2023-02-09T08:32:37.543Z,3.20
2023-02-09T08:35:06.965Z,2.90
2023-02-09T08:37:35.572Z,2.50
2023-02-09T08:40:03.825Z,2.30
2023-02-09T08:42:31.967Z,2.20
2023-02-09T08:44:59.935Z,2.10
2023-02-09T08:47:27.489Z,2.00
2023-02-09T08:49:55.585Z,2.00
2023-02-09T08:52:22.958Z,1.50
2023-02-09T08:54:50.678Z,1.40
2023-02-09T08:57:19.159Z,1.80
2023-02-09T08:59:46.557Z,2.20
2023-02-09T09:02:14.984Z,2.40
2023-02-09T09:04:42.321Z,2.50
2023-02-09T09:07:10.378Z,2.60
2023-02-09T09:09:37.614Z,3.00
2023-02-09T09:12:05.094Z,3.20
2023-02-09T09:14:32.444Z,3.30
2023-02-09T09:17:00.341Z,3.50
2023-02-09T09:19:29.532Z,3.70
2023-02-09T09:22:00.514Z,3.90
2023-02-09T09:24:30.573Z,4.00
2023-02-09T09:27:27.112Z,4.10
2023-02-09T09:29:56.202Z,4.40
2023-02-09T09:32:25.193Z,4.70
2023-02-09T09:34:54.934Z,5.00
2023-02-09T09:37:22.830Z,5.20
2023-02-09T09:39:51.238Z,5.40
2023-02-09T09:42:58.386Z,5.70
2023-02-09T09:45:31.186Z,5.90
2023-02-09T09:49:10.936Z,5.90
2023-02-09T09:51:45.217Z,5.90
2023-02-09T09:54:22.170Z,5.90
2023-02-09T09:56:53.946Z,5.90
2023-02-09T09:59:29.099Z,5.90
2023-02-09T10:02:02.326Z,5.90
2023-02-09T10:04:31.282Z,6.00
2023-02-09T10:07:10.611Z,6.00
2023-02-09T10:09:43.653Z,6.10
2023-02-09T10:12:30.443Z,6.20
2023-02-09T10:14:57.887Z,6.20
2023-02-09T10:17:25.219Z,6.40
2023-02-09T10:20:06.553Z,6.50
2023-02-09T10:22:34.925Z,6.60
2023-02-09T10:25:37.280Z,6.60
2023-02-09T10:28:07.377Z,6.60
2023-02-09T10:30:34.947Z,6.60
2023-02-09T10:33:03.712Z,6.60
2023-02-09T10:35:45.290Z,6.60
2023-02-09T10:38:18.844Z,6.50
2023-02-09T10:40:50.672Z,6.40
2023-02-09T10:43:34.104Z,6.40
2023-02-09T10:46:10.815Z,6.40
2023-02-09T10:48:45.213Z,6.40
2023-02-09T10:51:35.124Z,6.40
2023-02-09T10:54:19.536Z,6.50
2023-02-09T10:56:49.540Z,6.50
2023-02-09T10:59:22.811Z,6.50
2023-02-09T11:01:58.441Z,6.60
2023-02-09T11:04:38.849Z,6.60
2023-02-09T11:07:12.422Z,6.70
2023-02-09T11:09:49.594Z,6.80
2023-02-09T11:12:17.260Z,6.90
2023-02-09T11:14:44.760Z,6.90
2023-02-09T11:17:23.875Z,7.20
2023-02-09T11:19:57.071Z,7.40
2023-02-09T11:22:44.688Z,7.60
2023-02-09T11:25:39.869Z,7.60
2023-02-09T11:28:27.605Z,7.60
2023-02-09T11:31:21.186Z,7.80
2023-02-09T11:34:21.129Z,7.80
2023-02-09T11:37:16.615Z,7.70
2023-02-09T11:39:56.243Z,7.60
2023-02-09T11:42:44.280Z,7.60
2023-02-09T11:45:39.371Z,7.80
2023-02-09T11:48:29.677Z,8.10
2023-02-09T11:51:03.698Z,8.30
2023-02-09T11:53:49.851Z,8.30
2023-02-09T11:56:20.320Z,8.40
2023-02-09T11:58:47.984Z,8.40
2023-02-09T12:01:51.884Z,8.50
2023-02-09T12:04:25.420Z,8.40
2023-02-09T12:07:00.690Z,8.30
2023-02-09T12:10:06.049Z,8.40
2023-02-09T12:12:44.892Z,8.40
2023-02-09T12:15:46.754Z,8.40
2023-02-09T12:18:21.541Z,8.20
2023-02-09T12:21:06.473Z,8.00
2023-02-09T12:23:38.202Z,7.90
2023-02-09T12:26:18.045Z,7.90
2023-02-09T12:29:05.458Z,8.00
2023-02-09T12:32:04.880Z,8.00
2023-02-09T12:34:36.082Z,7.80
2023-02-09T12:37:27.338Z,7.60
2023-02-09T12:40:07.816Z,7.60
2023-02-09T12:43:10.981Z,7.50
2023-02-09T12:45:47.442Z,7.50
2023-02-09T12:48:19.375Z,7.50
2023-02-09T12:50:51.328Z,7.40
2023-02-09T12:53:24.781Z,7.20
2023-02-09T12:56:09.382Z,7.00
2023-02-09T12:59:06.934Z,7.00
2023-02-09T13:02:13.422Z,7.00
2023-02-09T13:04:59.555Z,6.90
2023-02-09T13:07:43.020Z,7.00
2023-02-09T13:10:22.097Z,7.00
2023-02-09T13:13:05.595Z,6.90
2023-02-09T13:15:56.175Z,6.90
2023-02-09T13:18:23.693Z,6.90
2023-02-09T13:20:50.959Z,6.90
2023-02-09T13:23:27.940Z,6.90
2023-02-09T13:26:18.956Z,6.80
2023-02-09T13:28:46.562Z,6.80
2023-02-09T13:31:31.504Z,6.90
2023-02-09T13:34:08.083Z,6.90
2023-02-09T13:36:41.961Z,6.90
2023-02-09T13:39:24.911Z,6.90
2023-02-09T13:41:55.350Z,7.00
2023-02-09T13:44:27.215Z,7.00
2023-02-09T13:47:00.177Z,7.00
2023-02-09T13:49:30.890Z,7.00
2023-02-09T13:52:23.857Z,7.00
2023-02-09T13:54:53.169Z,7.00
2023-02-09T13:57:36.084Z,6.90
2023-02-09T14:00:17.380Z,6.90
2023-02-09T14:02:58.034Z,6.90
2023-02-09T14:05:45.741Z,6.90
2023-02-09T14:08:16.293Z,6.90
2023-02-09T14:10:50.451Z,6.90
2023-02-09T14:13:27.138Z,6.90
2023-02-09T14:16:08.760Z,6.90
2023-02-09T14:18:55.714Z,6.90
2023-02-09T14:21:44.509Z,6.80
2023-02-09T14:24:40.724Z,6.70
2023-02-09T14:27:21.705Z,6.70
2023-02-09T14:29:50.699Z,6.70
2023-02-09T14:32:33.304Z,6.70
2023-02-09T14:35:19.851Z,6.70
2023-02-09T14:37:49.190Z,6.70
2023-02-09T14:40:27.886Z,6.60
2023-02-09T14:43:03.969Z,6.70
2023-02-09T14:45:40.812Z,6.60
2023-02-09T14:48:23.780Z,6.70
2023-02-09T14:50:55.065Z,6.70
2023-02-09T14:53:25.129Z,6.70
2023-02-09T14:55:54.941Z,6.70
2023-02-09T14:58:29.475Z,6.70
2023-02-09T15:01:00.770Z,6.70
2023-02-09T15:03:29.547Z,6.70
2023-02-09T15:06:05.137Z,6.70
2023-02-09T15:08:37.793Z,6.60
2023-02-09T15:11:27.439Z,6.60
2023-02-09T15:14:04.217Z,6.60
2023-02-09T15:16:32.244Z,6.60
2023-02-09T15:18:59.929Z,6.60
2023-02-09T15:21:27.385Z,6.50
2023-02-09T15:23:55.923Z,6.50
2023-02-09T15:26:26.991Z,6.50
2023-02-09T15:28:54.737Z,6.40
2023-02-09T15:31:22.244Z,6.40
2023-02-09T15:33:49.711Z,6.40
2023-02-09T15:36:20.829Z,6.40
2023-02-09T15:38:48.127Z,6.40
2023-02-09T15:41:36.054Z,6.30
2023-02-09T15:44:35.651Z,6.30
2023-02-09T15:47:22.821Z,6.30
2023-02-09T15:49:51.094Z,6.30
2023-02-09T15:52:19.611Z,6.20
2023-02-09T15:54:48.325Z,6.20
2023-02-09T15:57:18.632Z,6.20
2023-02-09T15:59:46.588Z,6.20
2023-02-09T16:02:17.331Z,6.20
2023-02-09T16:04:46.547Z,6.20
2023-02-09T16:07:20.778Z,6.20
2023-02-09T16:09:48.276Z,6.20
2023-02-09T16:12:17.393Z,6.20
2023-02-09T16:14:44.932Z,6.10
2023-02-09T16:17:13.259Z,6.20
2023-02-09T16:19:40.721Z,6.10
2023-02-09T16:22:09.524Z,6.10
2023-02-09T16:24:45.051Z,6.10
2023-02-09T16:27:28.212Z,6.10
2023-02-09T16:29:58.123Z,6.10
2023-02-09T16:32:28.555Z,6.10
2023-02-09T16:35:07.406Z,6.10
2023-02-09T16:37:44.892Z,6.10
2023-02-09T16:40:33.316Z,6.10
2023-02-09T16:43:02.716Z,6.10
2023-02-09T16:45:41.966Z,6.10
2023-02-09T16:48:40.290Z,6.10
2023-02-09T16:51:13.995Z,6.00
2023-02-09T16:53:51.554Z,6.00
2023-02-09T16:56:21.279Z,6.00
2023-02-09T16:58:49.188Z,6.10
2023-02-09T17:01:22.587Z,6.10
2023-02-09T17:03:56.513Z,6.10
2023-02-09T17:06:27.098Z,6.00
2023-02-09T17:08:56.816Z,6.00
2023-02-09T17:11:28.511Z,6.00
2023-02-09T17:13:56.031Z,6.00
2023-02-09T17:16:31.747Z,6.00
2023-02-09T17:19:03.391Z,6.00
2023-02-09T17:21:44.101Z,6.00
2023-02-09T17:24:13.339Z,6.00
2023-02-09T17:26:40.853Z,6.00
2023-02-09T17:29:09.847Z,5.90
2023-02-09T17:31:52.430Z,5.90
2023-02-09T17:34:27.378Z,5.90
2023-02-09T17:37:00.422Z,5.90
2023-02-09T17:39:30.497Z,5.90
2023-02-09T17:41:59.940Z,5.90
2023-02-09T17:44:45.040Z,5.90
2023-02-09T17:47:19.139Z,5.80
2023-02-09T17:49:47.581Z,5.80
2023-02-09T17:52:20.138Z,5.70
2023-02-09T17:54:47.922Z,5.70
2023-02-09T17:57:19.962Z,5.60
2023-02-09T17:59:48.110Z,5.70
2023-02-09T18:02:22.741Z,5.70
2023-02-09T18:04:50.323Z,5.80
2023-02-09T18:07:20.695Z,5.70
2023-02-09T18:09:48.332Z,5.80
2023-02-09T18:12:22.357Z,5.70
2023-02-09T18:14:49.803Z,5.80
2023-02-09T18:17:17.989Z,5.80
2023-02-09T18:19:46.250Z,5.70
2023-02-09T18:22:20.050Z,5.70
2023-02-09T18:24:51.065Z,5.60
2023-02-09T18:27:22.146Z,5.60
2023-02-09T18:29:52.536Z,5.60
2023-02-09T18:32:21.499Z,5.60
2023-02-09T18:34:48.888Z,5.60
2023-02-09T18:37:17.201Z,5.60
2023-02-09T18:39:46.873Z,5.50
2023-02-09T18:42:16.702Z,5.60
2023-02-09T18:44:44.054Z,5.70
2023-02-09T18:47:11.974Z,5.70
2023-02-09T18:49:39.972Z,5.60
2023-02-09T18:52:08.562Z,5.80
2023-02-09T18:54:37.708Z,5.90
2023-02-09T18:57:08.935Z,5.80
2023-02-09T18:59:37.022Z,5.80
2023-02-09T19:02:11.303Z,5.90
2023-02-09T19:04:38.834Z,5.80
2023-02-09T19:07:09.751Z,5.80
2023-02-09T19:09:43.216Z,5.80
2023-02-09T19:12:10.607Z,5.80
2023-02-09T19:14:45.770Z,5.80
2023-02-09T19:17:20.077Z,5.80
2023-02-09T19:19:47.892Z,5.70
2023-02-09T19:22:18.692Z,5.70
2023-02-09T19:24:48.995Z,5.70
2023-02-09T19:27:19.810Z,5.70
2023-02-09T19:29:47.214Z,5.80
2023-02-09T19:32:15.619Z,5.80
2023-02-09T19:34:45.569Z,5.70
2023-02-09T19:37:14.503Z,5.70
2023-02-09T19:39:42.380Z,5.60
2023-02-09T19:42:10.351Z,5.60
2023-02-09T19:44:38.510Z,5.60
2023-02-09T19:47:08.249Z,5.60
2023-02-09T19:49:35.804Z,5.60
2023-02-09T19:52:03.987Z,5.50
2023-02-09T19:54:32.428Z,5.50
2023-02-09T19:57:04.388Z,5.50
2023-02-09T19:59:32.711Z,5.40
2023-02-09T20:02:00.546Z,5.40
2023-02-09T20:04:28.444Z,5.40
2023-02-09T20:06:55.837Z,5.30
2023-02-09T20:09:23.068Z,5.20
2023-02-09T20:11:51.385Z,5.20
2023-02-09T20:14:19.176Z,5.00
2023-02-09T20:16:48.266Z,4.50
2023-02-09T20:19:15.936Z,4.30
2023-02-09T20:21:43.194Z,4.20
2023-02-09T20:24:13.877Z,4.40
2023-02-09T20:26:42.474Z,4.70
2023-02-09T20:29:11.276Z,4.90
2023-02-09T20:31:41.057Z,4.90
2023-02-09T20:34:11.873Z,4.90
2023-02-09T20:36:41.427Z,4.70
2023-02-09T20:39:11.093Z,4.70
2023-02-09T20:41:39.474Z,4.70
2023-02-09T20:44:25.263Z,4.60
2023-02-09T20:46:59.020Z,4.50
2023-02-09T20:49:34.447Z,4.50
2023-02-09T20:52:01.861Z,4.40
2023-02-09T20:54:32.057Z,4.40
2023-02-09T20:56:59.438Z,4.50
2023-02-09T20:59:27.512Z,4.50
2023-02-09T21:01:55.087Z,4.30
2023-02-09T21:04:26.740Z,3.60
2023-02-09T21:06:54.638Z,3.60
2023-02-09T21:09:26.440Z,3.80
2023-02-09T21:11:54.523Z,3.90
2023-02-09T21:14:27.796Z,4.00
2023-02-09T21:17:00.620Z,4.00
2023-02-09T21:19:29.045Z,3.90
2023-02-09T21:21:57.304Z,3.90
2023-02-09T21:24:25.972Z,3.90
2023-02-09T21:26:53.287Z,3.90
2023-02-09T21:29:22.008Z,4.00
2023-02-09T21:31:49.493Z,4.10
2023-02-09T21:34:17.274Z,4.10
2023-02-09T21:36:44.577Z,4.00
2023-02-09T21:39:11.901Z,3.90
2023-02-09T21:41:58.317Z,3.50
2023-02-09T21:44:27.180Z,3.30
2023-02-09T21:46:54.620Z,3.30
2023-02-09T21:49:22.313Z,3.50
2023-02-09T21:51:49.732Z,3.60
2023-02-09T21:54:18.583Z,3.50
2023-02-09T21:56:46.547Z,3.50
2023-02-09T21:59:13.938Z,3.50
2023-02-09T22:01:43.731Z,3.60
2023-02-09T22:04:11.096Z,3.70
2023-02-09T22:06:39.478Z,3.50
2023-02-09T22:09:06.765Z,3.40
2023-02-09T22:11:34.568Z,3.30
2023-02-09T22:14:02.045Z,3.30
2023-02-09T22:16:29.672Z,3.40
2023-02-09T22:18:59.398Z,3.10
2023-02-09T22:21:26.991Z,2.90
2023-02-09T22:23:55.274Z,2.90
2023-02-09T22:26:22.642Z,3.00
2023-02-09T22:28:50.553Z,2.80
2023-02-09T22:31:20.758Z,2.70
2023-02-09T22:33:48.678Z,2.90
2023-02-09T22:36:18.687Z,3.10
2023-02-09T22:38:47.980Z,3.10
2023-02-09T22:41:23.774Z,3.30
2023-02-09T22:44:06.028Z,3.30
2023-02-09T22:46:39.473Z,3.30
2023-02-09T22:49:13.432Z,3.00
2023-02-09T22:51:41.367Z,2.90
2023-02-09T22:54:09.769Z,2.80
2023-02-09T22:56:37.673Z,2.70
2023-02-09T22:59:05.179Z,2.70
2023-02-09T23:01:32.533Z,2.80
2023-02-09T23:04:00.708Z,3.00
2023-02-09T23:06:30.270Z,3.10
2023-02-09T23:09:01.708Z,3.30
2023-02-09T23:11:30.572Z,3.10
2023-02-09T23:14:09.130Z,2.60
2023-02-09T23:16:39.804Z,2.50
2023-02-09T23:19:08.661Z,2.50
2023-02-09T23:21:42.444Z,2.60
2023-02-09T23:24:10.759Z,2.70
2023-02-09T23:26:39.619Z,2.70
2023-02-09T23:29:11.896Z,2.20
2023-02-09T23:31:40.494Z,2.00
2023-02-09T23:34:09.235Z,2.20
2023-02-09T23:36:36.679Z,2.40
2023-02-09T23:39:06.459Z,2.60
2023-02-09T23:41:34.892Z,2.70
2023-02-09T23:44:03.936Z,2.40
2023-02-09T23:46:32.752Z,2.40
2023-02-09T23:49:00.373Z,2.70
2023-02-09T23:51:32.662Z,2.20
2023-02-09T23:54:03.267Z,2.10
2023-02-09T23:56:37.353Z,2.20
2023-02-09T23:59:11.979Z,2.40
